Time;durP1;ratioP1;P1;durP2;ratioP2;P2;SDS_P1;SDS_P2;PMS_P1;PMS_P2;Temp;Humidity;BMP_temperature;BMP_pressure;BME280_temperature;BME280_humidity;BME280_pressure;Samples;Min_cycle;Max_cycle;Signal;HPM_P1;HPM_P2
2021/10/11 00:00:12;;;;;;;16.10;4.15;;;;;;;;;;5032005;28;20120;-64
2021/10/11 00:02:57;;;;;;;12.20;3.05;;;;;;;;;;5053733;28;20053;-64
2021/10/11 00:05:42;;;;;;;9.98;3.40;;;;;;;;;;5055757;28;20087;-64
2021/10/11 00:08:28;;;;;;;16.52;3.75;;;;;;;;;;5055996;28;20049;-64
2021/10/11 00:11:13;;;;;;;14.50;4.13;;;;;;;;;;5055294;28;20049;-64
2021/10/11 00:13:59;;;;;;;9.82;3.25;;;;;;;;;;5053977;28;20057;-64
2021/10/11 00:16:44;;;;;;;14.57;3.35;;;;;;;;;;5055890;28;20053;-64
2021/10/11 00:19:35;;;;;;;15.95;4.10;;;;;;;;;;5055757;28;20060;-64
2021/10/11 00:22:20;;;;;;;11.65;3.30;;;;;;;;;;5046263;28;20507;-64
2021/10/11 00:25:06;;;;;;;14.95;3.85;;;;;;;;;;5035563;28;20050;-64
2021/10/11 00:27:51;;;;;;;12.70;3.25;;;;;;;;;;5035690;28;20053;-64
2021/10/11 00:30:36;;;;;;;13.00;3.47;;;;;;;;;;5035825;28;20412;-64
2021/10/11 00:33:21;;;;;;;12.40;3.63;;;;;;;;;;5049691;28;20057;-64
2021/10/11 00:36:06;;;;;;;12.35;3.22;;;;;;;;;;5055251;28;20048;-64
2021/10/11 00:38:52;;;;;;;12.05;3.53;;;;;;;;;;5055159;28;20049;-64
2021/10/11 00:41:37;;;;;;;15.23;3.85;;;;;;;;;;5055122;28;20049;-64
2021/10/11 00:44:22;;;;;;;17.58;3.38;;;;;;;;;;5015327;28;20049;-64
2021/10/11 00:47:08;;;;;;;12.75;3.55;;;;;;;;;;5015480;28;20054;-64
2021/10/11 00:49:53;;;;;;;10.32;2.78;;;;;;;;;;5015297;28;20120;-64
2021/10/11 00:52:39;;;;;;;9.98;2.58;;;;;;;;;;5021831;28;20477;-64
2021/10/11 00:55:24;;;;;;;10.98;2.80;;;;;;;;;;5054749;28;20057;-64
2021/10/11 00:58:09;;;;;;;8.23;2.60;;;;;;;;;;5054983;28;20126;-63
2021/10/11 01:00:55;;;;;;;12.65;2.97;;;;;;;;;;5055191;28;20469;-64
2021/10/11 01:03:40;;;;;;;11.05;2.83;;;;;;;;;;5045641;28;20057;-64
2021/10/11 01:06:26;;;;;;;10.57;3.35;;;;;;;;;;5034663;28;20579;-64
2021/10/11 01:09:11;;;;;;;9.63;2.72;;;;;;;;;;5034844;28;20053;-64
2021/10/11 01:11:56;;;;;;;12.13;2.97;;;;;;;;;;5034864;28;20412;-65
2021/10/11 01:14:42;;;;;;;11.15;3.22;;;;;;;;;;5048323;28;20053;-64
2021/10/11 01:17:27;;;;;;;12.63;3.38;;;;;;;;;;5054838;28;20474;-65
2021/10/11 01:20:12;;;;;;;10.73;3.25;;;;;;;;;;5054603;28;20057;-64
2021/10/11 01:22:57;;;;;;;10.00;3.08;;;;;;;;;;5054416;28;20071;-64
2021/10/11 01:25:43;;;;;;;10.48;3.13;;;;;;;;;;5034344;28;20496;-65
2021/10/11 01:28:29;;;;;;;14.75;3.42;;;;;;;;;;5034507;28;20054;-64
2021/10/11 01:31:14;;;;;;;13.30;3.13;;;;;;;;;;5034365;28;20057;-63
2021/10/11 01:34:00;;;;;;;9.93;3.42;;;;;;;;;;5037071;28;20084;-65
2021/10/11 01:36:45;;;;;;;16.02;3.60;;;;;;;;;;5054008;28;20049;-64
2021/10/11 01:39:30;;;;;;;12.75;4.22;;;;;;;;;;5054043;28;20423;-64
2021/10/11 01:42:16;;;;;;;14.82;2.92;;;;;;;;;;5054441;28;20053;-64
2021/10/11 01:45:01;;;;;;;10.38;3.03;;;;;;;;;;5045359;28;20046;-64
2021/10/11 01:47:46;;;;;;;15.05;3.63;;;;;;;;;;5033976;28;20120;-63
2021/10/11 01:50:32;;;;;;;12.40;3.22;;;;;;;;;;5034139;28;20058;-64
2021/10/11 01:53:17;;;;;;;11.10;3.75;;;;;;;;;;5034076;28;20053;-63
2021/10/11 01:56:02;;;;;;;16.73;3.60;;;;;;;;;;5047540;28;20056;-64
2021/10/11 01:58:48;;;;;;;10.55;2.83;;;;;;;;;;5053901;28;20451;-64
2021/10/11 02:01:33;;;;;;;12.10;3.60;;;;;;;;;;5052879;28;20049;-64
2021/10/11 02:04:18;;;;;;;11.00;2.58;;;;;;;;;;5053021;28;20049;-64
2021/10/11 02:07:03;;;;;;;14.57;4.20;;;;;;;;;;5032638;28;20049;-64
2021/10/11 02:09:49;;;;;;;10.93;2.92;;;;;;;;;;5033650;28;20053;-64
2021/10/11 02:12:34;;;;;;;13.10;2.88;;;;;;;;;;5033840;28;20046;-64
2021/10/11 02:15:19;;;;;;;17.08;3.13;;;;;;;;;;5035336;28;20503;-65
2021/10/11 02:18:05;;;;;;;13.13;2.78;;;;;;;;;;5053422;28;20612;-64
2021/10/11 02:20:50;;;;;;;13.23;3.20;;;;;;;;;;5053286;28;20056;-64
2021/10/11 02:23:36;;;;;;;14.90;2.67;;;;;;;;;;5032530;28;20049;-65
2021/10/11 02:26:23;;;;;;;13.70;3.08;;;;;;;;;;5040439;28;20048;-64
2021/10/11 02:29:09;;;;;;;11.00;2.80;;;;;;;;;;5053195;28;20053;-64
2021/10/11 02:31:55;;;;;;;15.93;2.85;;;;;;;;;;5053001;28;20057;-65
2021/10/11 02:34:40;;;;;;;11.45;2.58;;;;;;;;;;5052979;28;20061;-65
2021/10/11 02:37:25;;;;;;;8.98;3.17;;;;;;;;;;5038890;28;20053;-64
2021/10/11 02:40:11;;;;;;;11.73;2.50;;;;;;;;;;5032876;28;20053;-64
2021/10/11 02:42:56;;;;;;;11.27;3.25;;;;;;;;;;5036114;28;20045;-65
2021/10/11 02:45:41;;;;;;;16.58;3.85;;;;;;;;;;5032242;28;20050;-64
2021/10/11 02:48:26;;;;;;;12.00;3.40;;;;;;;;;;5032897;28;20076;-64
2021/10/11 02:51:12;;;;;;;8.15;2.85;;;;;;;;;;5032953;28;20053;-65
2021/10/11 02:53:57;;;;;;;8.43;2.75;;;;;;;;;;5013037;28;20444;-64
2021/10/11 02:56:43;;;;;;;13.50;3.53;;;;;;;;;;5018724;28;20049;-64
2021/10/11 02:59:28;;;;;;;10.02;3.15;;;;;;;;;;5032772;28;20132;-64
2021/10/11 03:02:13;;;;;;;13.00;3.80;;;;;;;;;;5036467;28;20049;-64
2021/10/11 03:04:58;;;;;;;14.43;3.47;;;;;;;;;;5052295;28;20124;-64
2021/10/11 03:07:44;;;;;;;11.02;2.80;;;;;;;;;;5032712;28;20045;-64
2021/10/11 03:10:29;;;;;;;10.93;3.70;;;;;;;;;;5032683;28;20053;-64
2021/10/11 03:13:14;;;;;;;14.18;4.05;;;;;;;;;;5031872;28;20058;-64
2021/10/11 03:16:00;;;;;;;14.25;3.50;;;;;;;;;;5032588;28;20124;-64
2021/10/11 03:18:45;;;;;;;16.30;4.65;;;;;;;;;;5032422;28;20128;-64
2021/10/11 03:21:30;;;;;;;9.60;4.53;;;;;;;;;;5032241;28;20511;-64
2021/10/11 03:24:15;;;;;;;18.60;4.32;;;;;;;;;;5046988;28;20056;-64
2021/10/11 03:27:01;;;;;;;15.52;4.82;;;;;;;;;;5051237;28;20049;-64
2021/10/11 03:29:46;;;;;;;13.50;3.72;;;;;;;;;;5052188;28;20065;-64
2021/10/11 03:32:32;;;;;;;17.13;3.83;;;;;;;;;;5052311;28;20445;-64
2021/10/11 03:35:17;;;;;;;11.55;4.88;;;;;;;;;;5052120;28;20048;-64
2021/10/11 03:38:03;;;;;;;14.90;3.08;;;;;;;;;;5046661;28;20049;-64
2021/10/11 03:40:48;;;;;;;12.43;2.47;;;;;;;;;;5030533;28;20045;-64
2021/10/11 03:43:33;;;;;;;11.73;2.50;;;;;;;;;;5031901;28;20053;-64
2021/10/11 03:46:18;;;;;;;14.15;2.53;;;;;;;;;;5032288;28;20053;-64
2021/10/11 03:49:04;;;;;;;16.08;3.28;;;;;;;;;;5032407;28;20049;-64
2021/10/11 03:51:49;;;;;;;15.25;2.40;;;;;;;;;;5031695;28;20411;-64
2021/10/11 03:54:34;;;;;;;21.45;2.58;;;;;;;;;;5031819;28;20511;-64
2021/10/11 03:57:20;;;;;;;16.77;2.67;;;;;;;;;;5032031;28;20054;-64
2021/10/11 04:00:06;;;;;;;14.63;2.90;;;;;;;;;;5044146;28;20045;-64
2021/10/11 04:02:57;;;;;;;12.35;2.65;;;;;;;;;;5051839;28;20049;-64
2021/10/11 04:05:42;;;;;;;6.80;2.08;;;;;;;;;;5051428;28;20056;-64
2021/10/11 04:08:36;;;;;;;11.57;2.50;;;;;;;;;;5051872;28;20063;-64
2021/10/11 04:11:23;;;;;;;9.88;2.55;;;;;;;;;;5049727;28;20048;-64
2021/10/11 04:14:08;;;;;;;14.32;2.70;;;;;;;;;;5051356;28;20059;-64
2021/10/11 04:16:53;;;;;;;13.63;1.90;;;;;;;;;;5051446;28;20056;-64
2021/10/11 04:19:38;;;;;;;13.80;2.60;;;;;;;;;;5049972;28;20045;-64
2021/10/11 04:22:24;;;;;;;9.30;2.53;;;;;;;;;;5031112;28;20050;-64
2021/10/11 04:25:09;;;;;;;12.80;3.00;;;;;;;;;;5031710;28;20116;-64
2021/10/11 04:27:54;;;;;;;14.15;3.00;;;;;;;;;;5031529;28;20049;-64
2021/10/11 04:30:41;;;;;;;13.23;3.05;;;;;;;;;;5032049;28;20049;-64
2021/10/11 04:33:26;;;;;;;9.85;2.35;;;;;;;;;;5031506;28;20049;-65
2021/10/11 04:36:11;;;;;;;12.63;2.78;;;;;;;;;;5031511;28;20061;-64
2021/10/11 04:38:56;;;;;;;11.80;2.47;;;;;;;;;;5031492;28;20124;-64
2021/10/11 04:41:42;;;;;;;13.00;3.08;;;;;;;;;;5041295;28;20124;-64
2021/10/11 04:44:27;;;;;;;9.77;2.35;;;;;;;;;;5051216;28;20124;-64
2021/10/11 04:47:13;;;;;;;8.73;2.28;;;;;;;;;;5051204;28;20056;-64
2021/10/11 04:49:58;;;;;;;13.68;3.53;;;;;;;;;;5055104;28;20041;-64
2021/10/11 04:52:43;;;;;;;11.20;2.30;;;;;;;;;;5053708;28;20049;-64
2021/10/11 04:55:30;;;;;;;11.93;3.58;;;;;;;;;;5054724;28;20462;-64
2021/10/11 04:58:16;;;;;;;11.20;3.72;;;;;;;;;;5055086;28;20048;-64
2021/10/11 05:01:01;;;;;;;10.60;3.05;;;;;;;;;;5054769;28;20119;-64
2021/10/11 05:03:46;;;;;;;13.00;2.17;;;;;;;;;;5052984;28;20052;-64
2021/10/11 05:06:32;;;;;;;11.30;3.90;;;;;;;;;;5054871;28;20052;-64
2021/10/11 05:09:17;;;;;;;15.55;3.17;;;;;;;;;;5054837;28;20053;-64
2021/10/11 05:12:02;;;;;;;13.60;2.83;;;;;;;;;;5054082;28;20123;-64
2021/10/11 05:14:48;;;;;;;15.18;3.00;;;;;;;;;;5054578;28;20123;-64
2021/10/11 05:17:33;;;;;;;12.07;2.60;;;;;;;;;;5054492;28;20053;-64
2021/10/11 05:20:18;;;;;;;13.43;3.35;;;;;;;;;;5054493;28;20048;-64
2021/10/11 05:23:04;;;;;;;12.70;2.63;;;;;;;;;;5048082;28;20057;-64
2021/10/11 05:25:50;;;;;;;17.15;3.03;;;;;;;;;;5034429;28;20050;-64
2021/10/11 05:28:35;;;;;;;13.68;2.45;;;;;;;;;;5034615;28;20613;-64
2021/10/11 05:31:20;;;;;;;11.35;3.13;;;;;;;;;;5034569;28;20106;-64
2021/10/11 05:34:06;;;;;;;13.85;3.38;;;;;;;;;;5045312;28;20057;-65
2021/10/11 05:36:51;;;;;;;14.20;3.40;;;;;;;;;;5053346;28;20053;-64
2021/10/11 05:39:36;;;;;;;18.48;3.00;;;;;;;;;;5085366;22;20048;-67
2021/10/11 05:42:23;;;;;;;13.73;2.72;;;;;;;;;;5074171;28;20048;-67
2021/10/11 05:45:08;;;;;;;13.02;3.17;;;;;;;;;;5089821;28;20127;-67
2021/10/11 05:47:54;;;;;;;14.52;3.08;;;;;;;;;;5091811;28;20123;-66
2021/10/11 05:50:39;;;;;;;12.68;2.58;;;;;;;;;;5074044;28;20052;-66
2021/10/11 05:53:24;;;;;;;17.13;4.28;;;;;;;;;;5073728;28;20522;-66
2021/10/11 05:56:09;;;;;;;13.75;3.95;;;;;;;;;;5072433;28;20060;-66
2021/10/11 05:58:55;;;;;;;17.88;3.28;;;;;;;;;;5073782;28;20048;-66
2021/10/11 06:01:40;;;;;;;15.90;3.70;;;;;;;;;;5071347;28;20048;-64
2021/10/11 06:04:26;;;;;;;12.77;3.40;;;;;;;;;;5073342;28;20053;-64
2021/10/11 06:07:11;;;;;;;12.65;5.07;;;;;;;;;;5073689;28;20048;-65
2021/10/11 06:09:56;;;;;;;10.15;3.28;;;;;;;;;;5073532;28;20056;-64
2021/10/11 06:12:43;;;;;;;9.45;3.05;;;;;;;;;;5053169;28;20092;-64
2021/10/11 06:15:28;;;;;;;13.25;3.75;;;;;;;;;;5053033;28;20057;-64
2021/10/11 06:18:13;;;;;;;11.48;2.60;;;;;;;;;;5053384;28;20049;-64
2021/10/11 06:20:58;;;;;;;14.48;4.10;;;;;;;;;;5054538;28;20415;-64
2021/10/11 06:23:46;;;;;;;13.20;4.20;;;;;;;;;;5073052;28;20052;-64
2021/10/11 06:26:31;;;;;;;14.45;3.33;;;;;;;;;;5073380;28;20057;-64
2021/10/11 06:29:16;;;;;;;14.13;3.17;;;;;;;;;;5073259;28;20147;-65
2021/10/11 06:32:03;;;;;;;20.45;3.53;;;;;;;;;;5065311;28;20053;-64
2021/10/11 06:34:48;;;;;;;11.55;3.08;;;;;;;;;;5051960;28;20116;-64
2021/10/11 06:37:33;;;;;;;19.08;4.47;;;;;;;;;;5052921;28;20057;-64
2021/10/11 06:40:19;;;;;;;13.52;3.35;;;;;;;;;;5053016;28;20049;-64
2021/10/11 06:43:04;;;;;;;18.60;3.45;;;;;;;;;;5065078;28;20053;-64
2021/10/11 06:45:50;;;;;;;14.77;3.45;;;;;;;;;;5052266;28;20437;-64
2021/10/11 06:48:35;;;;;;;12.13;3.90;;;;;;;;;;5059765;28;20045;-64
2021/10/11 06:51:20;;;;;;;22.08;3.97;;;;;;;;;;5063927;28;20061;-65
2021/10/11 06:54:05;;;;;;;21.08;5.85;;;;;;;;;;5069749;28;20052;-64
2021/10/11 06:56:51;;;;;;;15.60;4.07;;;;;;;;;;5052814;28;20053;-64
2021/10/11 06:59:38;;;;;;;17.77;3.33;;;;;;;;;;5052238;28;20060;-65
2021/10/11 07:02:23;;;;;;;14.27;3.67;;;;;;;;;;5051988;28;20048;-65
2021/10/11 07:05:10;;;;;;;21.05;3.38;;;;;;;;;;5053388;28;20056;-65
2021/10/11 07:07:58;;;;;;;14.18;2.95;;;;;;;;;;5032383;28;20512;-65
2021/10/11 07:10:43;;;;;;;14.25;3.08;;;;;;;;;;5047130;28;20048;-65
2021/10/11 07:13:28;;;;;;;12.18;2.80;;;;;;;;;;5071053;28;20158;-64
2021/10/11 07:16:13;;;;;;;17.63;3.13;;;;;;;;;;5043451;28;20049;-64
2021/10/11 07:18:59;;;;;;;18.92;3.85;;;;;;;;;;5032338;28;20053;-64
2021/10/11 07:21:44;;;;;;;11.63;2.53;;;;;;;;;;5056489;28;20506;-64
2021/10/11 07:24:29;;;;;;;12.10;2.80;;;;;;;;;;5072226;28;20518;-64
2021/10/11 07:27:15;;;;;;;19.85;3.00;;;;;;;;;;5043689;28;20057;-64
2021/10/11 07:30:01;;;;;;;16.60;3.80;;;;;;;;;;5042621;28;20057;-64
2021/10/11 07:32:46;;;;;;;11.07;2.78;;;;;;;;;;5043779;28;20049;-64
2021/10/11 07:35:31;;;;;;;18.40;3.10;;;;;;;;;;5041386;28;20049;-64
2021/10/11 07:38:17;;;;;;;15.30;3.50;;;;;;;;;;5037156;28;20053;-64
2021/10/11 07:41:02;;;;;;;12.15;3.22;;;;;;;;;;5044341;28;20049;-64
2021/10/11 07:43:47;;;;;;;11.05;3.08;;;;;;;;;;5069427;28;20131;-64
2021/10/11 07:46:33;;;;;;;11.98;3.00;;;;;;;;;;5041948;28;20522;-64
2021/10/11 07:49:18;;;;;;;13.32;3.03;;;;;;;;;;5032052;28;20053;-64
2021/10/11 07:52:04;;;;;;;12.85;3.03;;;;;;;;;;5052688;28;20084;-65
2021/10/11 07:54:49;;;;;;;15.98;3.47;;;;;;;;;;5031324;28;20093;-64
2021/10/11 07:57:34;;;;;;;10.40;2.85;;;;;;;;;;5032532;28;20049;-64
2021/10/11 08:00:20;;;;;;;14.15;2.75;;;;;;;;;;5036493;28;20049;-64
2021/10/11 08:03:05;;;;;;;13.70;2.92;;;;;;;;;;5051947;28;20045;-64
2021/10/11 08:05:50;;;;;;;15.98;3.05;;;;;;;;;;5044347;28;20504;-65
2021/10/11 08:08:36;;;;;;;14.52;2.75;;;;;;;;;;5039816;28;20044;-65
2021/10/11 08:11:21;;;;;;;7.45;2.00;;;;;;;;;;5041057;28;20053;-65
2021/10/11 08:14:06;;;;;;;14.25;2.42;;;;;;;;;;5042078;28;20053;-65
2021/10/11 08:16:52;;;;;;;11.05;2.05;;;;;;;;;;5042615;28;20045;-65
2021/10/11 08:19:37;;;;;;;14.63;2.95;;;;;;;;;;5042111;28;20116;-65
2021/10/11 08:22:23;;;;;;;14.77;1.75;;;;;;;;;;5040724;28;20042;-65
2021/10/11 08:25:08;;;;;;;15.32;3.15;;;;;;;;;;5048107;28;20048;-65
2021/10/11 08:27:54;;;;;;;8.55;2.10;;;;;;;;;;5045747;28;20499;-65
2021/10/11 08:30:39;;;;;;;12.23;3.08;;;;;;;;;;5045046;28;20049;-65
2021/10/11 08:33:24;;;;;;;7.65;2.15;;;;;;;;;;5044575;28;20049;-65
2021/10/11 08:36:13;;;;;;;14.85;2.88;;;;;;;;;;5044212;28;20049;-65
2021/10/11 08:38:59;;;;;;;11.20;2.30;;;;;;;;;;5051833;28;20053;-65
2021/10/11 08:41:45;;;;;;;9.48;2.15;;;;;;;;;;5045576;28;20045;-65
2021/10/11 08:44:30;;;;;;;12.73;1.90;;;;;;;;;;5045732;28;20041;-65
2021/10/11 08:47:15;;;;;;;14.25;2.35;;;;;;;;;;5049716;28;20053;-65
2021/10/11 08:50:00;;;;;;;14.15;2.50;;;;;;;;;;5043559;28;20045;-65
2021/10/11 08:52:47;;;;;;;14.90;2.20;;;;;;;;;;5049135;28;20049;-65
2021/10/11 08:55:32;;;;;;;10.98;2.00;;;;;;;;;;5053812;28;20411;-65
2021/10/11 08:58:18;;;;;;;13.20;2.33;;;;;;;;;;5054939;28;20403;-65
2021/10/11 09:01:07;;;;;;;11.55;2.33;;;;;;;;;;5050136;28;20049;-65
2021/10/11 09:03:52;;;;;;;10.30;2.38;;;;;;;;;;5074990;28;20049;-65
2021/10/11 09:06:37;;;;;;;13.40;2.10;;;;;;;;;;5060566;28;20048;-65
2021/10/11 09:09:23;;;;;;;11.68;2.08;;;;;;;;;;5050046;28;20115;-65
2021/10/11 09:12:15;;;;;;;10.23;2.28;;;;;;;;;;5050370;28;20048;-65
2021/10/11 09:15:08;;;;;;;16.25;3.03;;;;;;;;;;5028614;28;20052;-65
2021/10/11 09:18:02;;;;;;;;;;;;;;;;;;5045210;28;20099;-66
2021/10/11 09:20:47;;;;;;;11.38;2.88;;;;;;;;;;5044532;28;20294;-66
2021/10/11 09:23:33;;;;;;;10.65;2.03;;;;;;;;;;5035539;28;20493;-65
2021/10/11 09:26:21;;;;;;;8.40;2.00;;;;;;;;;;5048795;28;20050;-65
2021/10/11 09:29:06;;;;;;;8.27;1.65;;;;;;;;;;5045094;28;20077;-65
2021/10/11 09:31:51;;;;;;;21.20;2.30;;;;;;;;;;5031409;28;20076;-64
2021/10/11 09:34:40;;;;;;;12.38;2.38;;;;;;;;;;5035966;28;20056;-66
2021/10/11 09:37:25;;;;;;;5.97;1.70;;;;;;;;;;5040106;28;20053;-65
2021/10/11 09:40:11;;;;;;;7.82;2.20;;;;;;;;;;5002571;28;20136;-66
2021/10/11 09:42:56;;;;;;;8.45;1.77;;;;;;;;;;5053450;28;20565;-64
2021/10/11 09:45:41;;;;;;;8.57;1.77;;;;;;;;;;5034980;28;20088;-65
2021/10/11 09:48:26;;;;;;;10.27;1.80;;;;;;;;;;5016019;28;20053;-65
2021/10/11 09:51:11;;;;;;;7.38;1.35;;;;;;;;;;5034357;28;20053;-65
2021/10/11 09:53:56;;;;;;;7.78;1.90;;;;;;;;;;5044405;28;20049;-65
2021/10/11 09:56:43;;;;;;;9.02;1.20;;;;;;;;;;5026364;28;20487;-65
2021/10/11 09:59:29;;;;;;;8.30;1.23;;;;;;;;;;5029507;28;20120;-64
2021/10/11 10:02:17;;;;;;;10.10;1.80;;;;;;;;;;5025579;28;20076;-65
2021/10/11 10:05:03;;;;;;;6.80;1.77;;;;;;;;;;5024966;28;20049;-65
2021/10/11 10:07:48;;;;;;;7.68;1.40;;;;;;;;;;5042170;28;20685;-65
2021/10/11 10:10:34;;;;;;;9.55;1.55;;;;;;;;;;5028392;28;20491;-65
2021/10/11 10:13:20;;;;;;;11.02;1.50;;;;;;;;;;5043687;28;20120;-66
2021/10/11 10:16:08;;;;;;;7.18;1.00;;;;;;;;;;5048466;28;20076;-65
2021/10/11 10:18:54;;;;;;;6.95;1.10;;;;;;;;;;5051575;28;20084;-66
2021/10/11 10:21:40;;;;;;;9.88;1.38;;;;;;;;;;5026741;28;20053;-65
2021/10/11 10:24:26;;;;;;;11.30;2.67;;;;;;;;;;5025852;28;20052;-65
2021/10/11 10:27:13;;;;;;;10.82;1.98;;;;;;;;;;5031122;28;20474;-64
2021/10/11 10:29:59;;;;;;;8.75;1.45;;;;;;;;;;5030846;28;20061;-65
2021/10/11 10:32:54;;;;;;;5.35;0.88;;;;;;;;;;5015124;28;20057;-67
2021/10/11 10:35:39;;;;;;;7.90;1.55;;;;;;;;;;5045150;28;20060;-65
2021/10/11 10:38:26;;;;;;;14.32;1.60;;;;;;;;;;5057506;28;20053;-65
2021/10/11 10:41:20;;;;;;;10.98;1.35;;;;;;;;;;5046431;28;20049;-65
2021/10/11 10:44:18;;;;;;;6.95;0.90;;;;;;;;;;5045896;28;20161;-65
2021/10/11 10:47:03;;;;;;;7.53;0.88;;;;;;;;;;5027851;28;20049;-65
2021/10/11 10:49:48;;;;;;;7.93;1.27;;;;;;;;;;5043175;28;20053;-65
2021/10/11 10:52:34;;;;;;;9.52;1.50;;;;;;;;;;5015130;28;20436;-65
2021/10/11 10:55:19;;;;;;;7.30;1.10;;;;;;;;;;5046550;28;20124;-66
2021/10/11 10:58:05;;;;;;;10.60;1.30;;;;;;;;;;5071827;28;20049;-68
2021/10/11 11:00:50;;;;;;;8.40;1.15;;;;;;;;;;5029679;28;20442;-66
2021/10/11 11:03:35;;;;;;;9.02;1.27;;;;;;;;;;5051349;28;20507;-67
2021/10/11 11:06:27;;;;;;;4.72;0.80;;;;;;;;;;5058793;28;20071;-70
2021/10/11 11:09:12;;;;;;;4.15;1.10;;;;;;;;;;5029152;28;20053;-68
2021/10/11 11:11:58;;;;;;;6.97;1.15;;;;;;;;;;5033575;28;20053;-67
2021/10/11 11:14:44;;;;;;;8.60;1.02;;;;;;;;;;5014273;28;20049;-67
2021/10/11 11:17:32;;;;;;;3.55;1.00;;;;;;;;;;5026072;28;20426;-67
2021/10/11 11:20:26;;;;;;;9.88;1.67;;;;;;;;;;5040592;28;20049;-68
2021/10/11 11:23:15;;;;;;;5.15;0.95;;;;;;;;;;5008684;28;20056;-68
2021/10/11 11:26:04;;;;;;;7.30;1.30;;;;;;;;;;5026052;28;20049;-67
2021/10/11 11:28:49;;;;;;;7.40;1.05;;;;;;;;;;5043800;28;20053;-68
2021/10/11 11:31:34;;;;;;;9.70;1.58;;;;;;;;;;5040455;28;20053;-67
2021/10/11 11:34:20;;;;;;;5.68;1.13;;;;;;;;;;5014110;28;20058;-67
2021/10/11 11:37:05;;;;;;;6.85;1.30;;;;;;;;;;5031644;28;20053;-67
2021/10/11 11:39:50;;;;;;;10.55;1.75;;;;;;;;;;5051657;28;20495;-68
2021/10/11 11:42:35;;;;;;;7.32;0.95;;;;;;;;;;5032084;28;20558;-69
2021/10/11 11:45:21;;;;;;;8.27;1.33;;;;;;;;;;5031738;28;20054;-69
2021/10/11 11:48:10;;;;;;;9.68;1.38;;;;;;;;;;5046478;28;20148;-69
2021/10/11 11:51:05;;;;;;;7.55;1.20;;;;;;;;;;5032012;28;20050;-69
2021/10/11 11:53:52;;;;;;;8.68;1.73;;;;;;;;;;5019992;28;20045;-69
2021/10/11 11:56:37;;;;;;;5.90;1.20;;;;;;;;;;5048409;28;20057;-68
2021/10/11 11:59:22;;;;;;;7.10;1.60;;;;;;;;;;5050211;28;20131;-68
2021/10/11 12:02:07;;;;;;;6.30;0.80;;;;;;;;;;5012679;28;20045;-69
2021/10/11 12:04:53;;;;;;;8.90;1.60;;;;;;;;;;5029015;28;20049;-68
2021/10/11 12:07:42;;;;;;;10.32;1.42;;;;;;;;;;5029861;28;20045;-69
2021/10/11 12:10:27;;;;;;;7.47;1.25;;;;;;;;;;5033053;28;20045;-69
2021/10/11 12:13:12;;;;;;;6.57;1.30;;;;;;;;;;5045684;28;20049;-69
2021/10/11 12:15:58;;;;;;;6.95;1.85;;;;;;;;;;5042948;28;20049;-69
2021/10/11 12:18:43;;;;;;;3.67;1.27;;;;;;;;;;5021523;28;20062;-68
2021/10/11 12:21:32;;;;;;;4.22;1.35;;;;;;;;;;5036249;28;20091;-68
2021/10/11 12:24:18;;;;;;;4.28;0.95;;;;;;;;;;5035091;28;20053;-69
2021/10/11 12:27:07;;;;;;;5.65;0.90;;;;;;;;;;5034460;28;20049;-66
2021/10/11 12:29:54;;;;;;;5.88;0.95;;;;;;;;;;5018474;28;20647;-69
2021/10/11 12:32:39;;;;;;;5.47;1.30;;;;;;;;;;5044190;28;20049;-69
2021/10/11 12:35:24;;;;;;;8.65;0.90;;;;;;;;;;5039831;28;20049;-68
2021/10/11 12:38:11;;;;;;;7.03;1.40;;;;;;;;;;5035312;28;20503;-66
2021/10/11 12:40:56;;;;;;;6.88;0.90;;;;;;;;;;5065333;28;20568;-67
2021/10/11 12:43:55;;;;;;;4.35;0.70;;;;;;;;;;5059296;28;20502;-66
2021/10/11 12:46:41;;;;;;;6.38;0.77;;;;;;;;;;5075371;28;20044;-67
2021/10/11 12:49:33;;;;;;;5.88;0.90;;;;;;;;;;5055363;28;20116;-66
2021/10/11 12:52:18;;;;;;;5.80;0.80;;;;;;;;;;5040576;28;20053;-67
2021/10/11 12:55:06;;;;;;;4.05;1.02;;;;;;;;;;5038856;28;20132;-67
2021/10/11 12:57:52;;;;;;;7.45;1.30;;;;;;;;;;5039858;28;20053;-67
2021/10/11 13:00:37;;;;;;;4.43;0.63;;;;;;;;;;5062271;28;20048;-67
2021/10/11 13:03:23;;;;;;;4.05;0.50;;;;;;;;;;5069549;28;20053;-68
2021/10/11 13:06:08;;;;;;;3.28;0.93;;;;;;;;;;5061364;28;20510;-67
2021/10/11 13:08:55;;;;;;;3.28;0.52;;;;;;;;;;5047394;28;20048;-67
2021/10/11 13:11:41;;;;;;;3.08;0.68;;;;;;;;;;5072617;28;20494;-67
2021/10/11 13:14:26;;;;;;;5.68;1.33;;;;;;;;;;5041620;28;20058;-67
2021/10/11 13:17:11;;;;;;;4.85;0.77;;;;;;;;;;5043664;28;20415;-66
2021/10/11 13:19:57;;;;;;;3.75;0.95;;;;;;;;;;5040951;28;20099;-68
2021/10/11 13:22:42;;;;;;;7.72;1.00;;;;;;;;;;5074096;28;20414;-68
2021/10/11 13:25:28;;;;;;;9.15;1.77;;;;;;;;;;5079263;28;20049;-68
2021/10/11 13:28:13;;;;;;;5.22;0.95;;;;;;;;;;5059737;28;20045;-68
2021/10/11 13:37:58;;;;;;;2.13;0.60;;;;;;;;;;5035989;28;20057;-68
2021/10/11 14:29:16;;;;;;;2.88;0.40;;;;;;;;;;5052977;28;20045;-70
2021/10/11 14:32:08;;;;;;;3.50;0.60;;;;;;;;;;5041504;28;20052;-70
2021/10/11 16:00:14;;;;;;;9.38;1.77;;;;;;;;;;5037441;28;20124;-68
2021/10/11 16:03:07;;;;;;;4.53;0.70;;;;;;;;;;5070924;28;20052;-68
2021/10/11 16:05:52;;;;;;;7.43;1.23;;;;;;;;;;5060087;28;20050;-68
2021/10/11 16:08:37;;;;;;;4.50;0.70;;;;;;;;;;5042650;28;20049;-68
2021/10/11 16:11:23;;;;;;;5.07;0.90;;;;;;;;;;5041283;28;20451;-68
2021/10/11 16:14:08;;;;;;;8.05;1.13;;;;;;;;;;5041354;28;20515;-68
2021/10/11 16:16:54;;;;;;;7.72;0.85;;;;;;;;;;5044460;28;20049;-68
2021/10/11 16:19:39;;;;;;;4.97;1.13;;;;;;;;;;5053454;28;20057;-70
2021/10/11 16:22:24;;;;;;;28.73;21.48;;;;;;;;;;5051630;28;20083;-69
2021/10/11 16:25:10;;;;;;;23.50;21.33;;;;;;;;;;5032429;28;20053;-69
2021/10/11 16:27:55;;;;;;;35.47;32.05;;;;;;;;;;5051322;28;20083;-69
2021/10/11 16:30:41;;;;;;;35.33;32.13;;;;;;;;;;5032529;28;20053;-69
2021/10/11 16:33:26;;;;;;;16.25;13.68;;;;;;;;;;5047165;28;20057;-68
2021/10/11 16:36:12;;;;;;;6.97;3.58;;;;;;;;;;4984233;28;20061;-69
2021/10/11 16:38:58;;;;;;;206.48;168.85;;;;;;;;;;5004722;28;20049;-68
2021/10/11 16:41:43;;;;;;;18.65;12.40;;;;;;;;;;5033322;28;20056;-69
2021/10/11 16:44:28;;;;;;;7.95;4.00;;;;;;;;;;5023286;28;20049;-68
2021/10/11 16:47:14;;;;;;;11.75;2.67;;;;;;;;;;5009430;28;20049;-68
2021/10/11 16:49:59;;;;;;;5.47;1.35;;;;;;;;;;5010752;28;20364;-70
2021/10/11 16:52:44;;;;;;;7.25;1.60;;;;;;;;;;5037146;28;20515;-68
2021/10/11 16:55:29;;;;;;;6.75;1.40;;;;;;;;;;5004207;28;20503;-69
2021/10/11 16:58:14;;;;;;;8.95;2.03;;;;;;;;;;5002010;28;20083;-68
2021/10/11 17:00:59;;;;;;;5.45;1.17;;;;;;;;;;5018027;28;20103;-69
2021/10/11 17:03:44;;;;;;;10.40;1.35;;;;;;;;;;5002421;28;20049;-68
2021/10/11 17:06:29;;;;;;;8.40;1.25;;;;;;;;;;5016709;28;20059;-69
2021/10/11 17:09:15;;;;;;;7.90;1.42;;;;;;;;;;5043358;28;20045;-68
2021/10/11 17:12:00;;;;;;;7.45;1.10;;;;;;;;;;5020254;28;20650;-68
2021/10/11 17:14:45;;;;;;;8.38;1.38;;;;;;;;;;5032360;28;20049;-68
2021/10/11 17:17:30;;;;;;;8.45;4.70;;;;;;;;;;5019795;28;20536;-68
2021/10/11 17:20:16;;;;;;;10.18;4.20;;;;;;;;;;4997438;28;20535;-68
2021/10/11 17:23:01;;;;;;;15.75;6.15;;;;;;;;;;5018553;28;20053;-69
2021/10/11 17:25:46;;;;;;;10.20;3.80;;;;;;;;;;5033625;28;20048;-69
2021/10/11 17:28:31;;;;;;;15.52;12.40;;;;;;;;;;5008601;28;20041;-68
2021/10/11 17:31:17;;;;;;;25.33;21.17;;;;;;;;;;5020211;28;20057;-68
2021/10/11 17:34:02;;;;;;;5.65;2.00;;;;;;;;;;5032652;28;20671;-68
2021/10/11 17:36:47;;;;;;;10.50;4.25;;;;;;;;;;5019610;28;20535;-68
2021/10/11 17:39:33;;;;;;;6.80;2.17;;;;;;;;;;5035769;28;20507;-69
2021/10/11 17:42:17;;;;;;;11.52;3.22;;;;;;;;;;5035660;28;20065;-67
2021/10/11 17:45:03;;;;;;;9.30;2.00;;;;;;;;;;5033529;28;20056;-68
2021/10/11 17:47:51;;;;;;;7.60;2.28;;;;;;;;;;5048076;23;20038;-66
2021/10/11 17:50:36;;;;;;;8.10;2.08;;;;;;;;;;5029498;28;20041;-66
2021/10/11 17:53:22;;;;;;;6.45;3.10;;;;;;;;;;5031581;28;20050;-66
2021/10/11 17:56:08;;;;;;;7.72;2.92;;;;;;;;;;5019182;28;20061;-66
2021/10/11 17:58:54;;;;;;;10.45;2.78;;;;;;;;;;5011616;28;20050;-66
2021/10/11 18:01:39;;;;;;;8.45;2.80;;;;;;;;;;5004869;28;20054;-66
2021/10/11 18:04:24;;;;;;;10.25;2.70;;;;;;;;;;5009205;28;20046;-66
2021/10/11 18:07:09;;;;;;;8.85;4.53;;;;;;;;;;5010526;28;20420;-67
2021/10/11 18:09:58;;;;;;;9.32;3.00;;;;;;;;;;5016629;28;20054;-66
2021/10/11 18:12:44;;;;;;;9.48;2.35;;;;;;;;;;5000842;28;20767;-66
2021/10/11 18:15:30;;;;;;;9.30;1.70;;;;;;;;;;4998772;28;20431;-66
2021/10/11 18:18:16;;;;;;;7.97;1.92;;;;;;;;;;5009431;28;20057;-67
2021/10/11 18:21:01;;;;;;;7.03;1.40;;;;;;;;;;5011160;28;20057;-66
2021/10/11 18:23:46;;;;;;;7.80;2.17;;;;;;;;;;5010142;28;20050;-69
2021/10/11 18:26:32;;;;;;;8.75;1.70;;;;;;;;;;5010738;28;20050;-67
2021/10/11 18:29:18;;;;;;;11.98;3.33;;;;;;;;;;5005595;28;20068;-67
2021/10/11 18:32:05;;;;;;;14.45;3.10;;;;;;;;;;5009277;28;20500;-67
2021/10/11 18:34:50;;;;;;;10.60;3.42;;;;;;;;;;5010325;28;20054;-67
2021/10/11 18:37:35;;;;;;;11.32;4.57;;;;;;;;;;5010285;28;20050;-67
2021/10/11 18:40:20;;;;;;;8.43;3.20;;;;;;;;;;5009536;28;20053;-65
2021/10/11 18:43:05;;;;;;;7.70;2.15;;;;;;;;;;5010955;28;20046;-67
2021/10/11 18:45:51;;;;;;;10.50;2.28;;;;;;;;;;5009791;28;20066;-66